createdAt,value
2017-03-20T00:02:09.039Z,32.7
2017-03-20T00:07:09.992Z,32.5
2017-03-20T00:12:10.979Z,32.3
2017-03-20T00:17:12.140Z,32.1
2017-03-20T00:22:12.989Z,31.9
2017-03-20T00:27:13.961Z,31.7
2017-03-20T00:32:14.934Z,31.6
2017-03-20T00:37:15.881Z,31.4
2017-03-20T00:42:16.815Z,31.3
2017-03-20T00:47:17.745Z,31.2
2017-03-20T00:52:18.653Z,31.2
2017-03-20T00:57:19.606Z,31.2
2017-03-20T01:02:20.540Z,31.3
2017-03-20T01:07:21.512Z,31.4
2017-03-20T01:12:22.455Z,31.5
2017-03-20T01:17:23.386Z,31.6
2017-03-20T01:22:24.369Z,31.8
2017-03-20T01:27:25.335Z,31.9
2017-03-20T01:32:26.287Z,32
2017-03-20T01:37:27.282Z,32.2
2017-03-20T01:42:28.186Z,32.3
2017-03-20T01:47:29.158Z,32.4
2017-03-20T01:52:30.046Z,32.4
2017-03-20T01:57:30.988Z,32.6
2017-03-20T02:02:31.924Z,32.7
2017-03-20T02:07:32.852Z,32.8
2017-03-20T02:12:33.821Z,32.9
2017-03-20T02:17:34.856Z,33
2017-03-20T02:22:35.814Z,33.2
2017-03-20T02:27:36.775Z,33.3
2017-03-20T02:32:37.719Z,33.4
2017-03-20T02:37:38.662Z,33.4
2017-03-20T02:42:39.678Z,33.5
2017-03-20T02:47:40.683Z,33.6
2017-03-20T02:52:41.687Z,33.7
2017-03-20T02:57:42.634Z,33.8
2017-03-20T03:02:43.564Z,33.8
2017-03-20T03:07:44.584Z,33.9
2017-03-20T03:12:45.517Z,34
2017-03-20T03:17:46.454Z,34
2017-03-20T03:22:47.413Z,34
2017-03-20T03:27:48.374Z,33.9
2017-03-20T03:32:49.349Z,33.9
2017-03-20T03:37:50.338Z,33.7
2017-03-20T03:42:51.326Z,33.6
2017-03-20T03:47:52.270Z,33.5
2017-03-20T03:52:53.244Z,33.3
2017-03-20T03:57:54.169Z,33.2
2017-03-20T04:02:55.164Z,33.1
2017-03-20T04:07:56.104Z,33
2017-03-20T04:12:57.078Z,32.9
2017-03-20T04:17:58.185Z,32.7
2017-03-20T04:22:59.009Z,32.6
2017-03-20T04:27:59.964Z,32.4
2017-03-20T04:33:00.933Z,32.2
2017-03-20T04:38:01.903Z,32.1
2017-03-20T04:43:02.906Z,32
2017-03-20T04:48:03.853Z,31.7
2017-03-20T04:53:04.742Z,31.7
2017-03-20T04:58:05.737Z,31.9
2017-03-20T05:03:06.650Z,31.9
2017-03-20T05:08:07.632Z,32
2017-03-20T05:13:08.600Z,32.1
2017-03-20T05:18:09.551Z,32.2
2017-03-20T05:23:10.370Z,32.3
2017-03-20T05:28:11.341Z,32.4
2017-03-20T05:33:12.297Z,32.5
2017-03-20T05:38:13.276Z,32.7
2017-03-20T05:43:14.231Z,32.9
2017-03-20T05:48:15.166Z,33
2017-03-20T05:53:16.137Z,33.2
2017-03-20T05:58:17.094Z,33.4
2017-03-20T06:03:18.016Z,33.5
2017-03-20T06:08:18.935Z,33.7
2017-03-20T06:13:19.838Z,33.8
2017-03-20T06:18:20.810Z,34
2017-03-20T06:23:21.781Z,34
2017-03-20T06:28:22.739Z,34.2
2017-03-20T06:33:23.680Z,34.4
2017-03-20T06:38:24.631Z,34.5
2017-03-20T06:43:25.620Z,34.5
2017-03-20T06:48:26.573Z,34.5
2017-03-20T06:53:27.550Z,34.4
2017-03-20T06:58:28.463Z,34.3
2017-03-20T07:03:29.398Z,34.2
2017-03-20T07:08:30.348Z,34.1
2017-03-20T07:18:32.252Z,33.7
2017-03-20T07:23:33.256Z,33.5
2017-03-20T07:28:34.178Z,33.5
2017-03-20T07:33:35.134Z,33.3
2017-03-20T07:38:36.110Z,33
2017-03-20T07:43:37.152Z,32.8
2017-03-20T07:48:38.120Z,32.6
2017-03-20T07:53:39.089Z,32.4
2017-03-20T07:58:40.070Z,32.3
2017-03-20T08:03:41.094Z,32.2
2017-03-20T08:08:42.079Z,32
2017-03-20T08:13:43.044Z,31.8
2017-03-20T08:18:44.039Z,31.5
2017-03-20T08:23:45.069Z,31.2
2017-03-20T08:28:46.057Z,31.1
2017-03-20T08:33:47.012Z,31
2017-03-20T08:38:48.001Z,30.7
2017-03-20T08:43:48.970Z,30.5
2017-03-20T08:48:49.953Z,30.3
2017-03-20T08:53:50.878Z,30.2
2017-03-20T08:58:51.828Z,29.8
2017-03-20T09:03:52.810Z,29.5
2017-03-20T09:08:53.810Z,29.4
2017-03-20T09:13:54.712Z,29.3
2017-03-20T09:18:55.750Z,29.3
2017-03-20T09:23:56.764Z,29.3
2017-03-20T09:28:57.727Z,29.5
2017-03-20T09:33:58.677Z,29.6
2017-03-20T09:38:59.581Z,29.8
2017-03-20T09:44:00.594Z,29.9
2017-03-20T09:49:01.590Z,30.1
2017-03-20T09:54:02.566Z,30.2
2017-03-20T09:59:03.523Z,30.4
2017-03-20T10:04:04.541Z,30.5
2017-03-20T10:09:05.531Z,30.7
2017-03-20T10:14:06.527Z,30.8
2017-03-20T10:19:07.510Z,31
2017-03-20T10:24:08.500Z,31.1
2017-03-20T10:29:09.492Z,31.1
2017-03-20T10:34:10.477Z,31.2
2017-03-20T10:39:11.469Z,31.3
2017-03-20T10:44:12.487Z,31.3
2017-03-20T10:49:13.384Z,31.4
2017-03-20T10:54:14.314Z,31.5
2017-03-20T10:59:15.312Z,31.5
2017-03-20T11:04:16.308Z,31.5
2017-03-20T11:09:17.314Z,31.5
2017-03-20T11:14:18.249Z,31.6
2017-03-20T11:19:19.257Z,31.7
2017-03-20T11:24:20.222Z,31.7
2017-03-20T11:29:21.189Z,31.8
2017-03-20T11:34:22.171Z,31.8
2017-03-20T11:39:23.064Z,31.8
2017-03-20T11:44:24.055Z,31.9
2017-03-20T11:49:25.002Z,31.9
2017-03-20T11:54:25.979Z,31.9
2017-03-20T11:59:26.949Z,32
2017-03-20T12:04:27.919Z,32.1
2017-03-20T12:09:28.946Z,32.1
2017-03-20T12:14:29.999Z,32.1
2017-03-20T12:19:30.939Z,32.2
2017-03-20T12:24:31.903Z,32.3
2017-03-20T12:29:32.878Z,32.3
2017-03-20T12:34:33.840Z,32.4
2017-03-20T12:39:34.806Z,32.5
2017-03-20T12:44:35.770Z,32.6
2017-03-20T12:49:36.734Z,32.7
2017-03-20T12:54:37.707Z,32.9
2017-03-20T12:59:38.678Z,32.9
2017-03-20T13:04:39.643Z,33
2017-03-20T13:09:40.621Z,33
2017-03-20T13:14:41.623Z,33
2017-03-20T13:19:42.531Z,33.1
2017-03-20T13:24:43.438Z,33.2
2017-03-20T13:29:44.407Z,33.2
2017-03-20T13:34:45.379Z,33.2
2017-03-20T13:39:46.349Z,33.3
2017-03-20T13:44:47.308Z,33.3
2017-03-20T13:49:48.275Z,33.3
2017-03-20T13:54:49.253Z,33.3
2017-03-20T13:59:50.150Z,33.4
2017-03-20T14:04:51.132Z,33.5
2017-03-20T14:09:52.099Z,33.5
2017-03-20T14:14:53.071Z,33.5
2017-03-20T14:19:54.045Z,33.6
2017-03-20T14:24:54.931Z,33.7
2017-03-20T14:29:55.893Z,33.7
2017-03-20T14:34:56.846Z,33.8
2017-03-20T14:39:57.797Z,33.8
2017-03-20T14:44:58.748Z,33.8
2017-03-20T14:49:59.690Z,33.8
2017-03-20T14:55:00.623Z,33.8
2017-03-20T15:00:01.565Z,33.8
2017-03-20T15:05:02.498Z,33.7
2017-03-20T15:10:03.494Z,33.7
2017-03-20T15:15:04.428Z,33.6
2017-03-20T15:20:05.368Z,33.5
2017-03-20T15:25:06.310Z,33.5
2017-03-20T15:30:07.239Z,33.4
2017-03-20T15:35:08.247Z,33.3
2017-03-20T15:40:09.278Z,33.2
2017-03-20T15:45:10.099Z,33.1
2017-03-20T15:50:11.172Z,33
2017-03-20T15:55:12.081Z,33
2017-03-20T16:00:13.060Z,32.9
2017-03-20T16:05:13.980Z,32.8
2017-03-20T16:10:14.966Z,32.7
2017-03-20T16:15:15.929Z,32.6
2017-03-20T16:20:16.895Z,32.5
2017-03-20T16:25:17.852Z,32.4
2017-03-20T16:30:18.831Z,32.2
2017-03-20T16:35:19.861Z,32.2
2017-03-20T16:40:20.761Z,32
2017-03-20T16:45:21.711Z,31.9
2017-03-20T16:50:22.643Z,31.8
2017-03-20T16:55:23.579Z,31.7
2017-03-20T17:00:24.573Z,31.7
2017-03-20T17:05:25.563Z,31.6
2017-03-20T17:10:26.498Z,31.5
2017-03-20T17:15:27.416Z,31.4
2017-03-20T17:20:28.375Z,31.6
2017-03-20T17:25:29.301Z,31.7
2017-03-20T17:30:30.233Z,31.9
2017-03-20T17:35:31.195Z,32.1
2017-03-20T17:40:32.170Z,32.3
2017-03-20T17:45:33.126Z,32.6
2017-03-20T17:50:34.039Z,32.7
2017-03-20T17:55:34.993Z,32.9
2017-03-20T18:00:35.946Z,33.1
2017-03-20T18:05:36.895Z,33.3
2017-03-20T18:10:37.847Z,33.5
2017-03-20T18:15:38.786Z,33.6
2017-03-20T18:20:39.752Z,33.8
2017-03-20T18:25:40.701Z,33.9
2017-03-20T18:30:41.640Z,34
2017-03-20T18:35:42.648Z,34.1
2017-03-20T18:40:43.672Z,34.2
2017-03-20T18:45:44.635Z,34.2
2017-03-20T18:50:45.526Z,34.2
2017-03-20T18:55:46.500Z,34.3
2017-03-20T19:00:47.456Z,34.3
2017-03-20T19:05:48.463Z,34.3
2017-03-20T19:10:49.393Z,34.3
2017-03-20T19:15:50.386Z,34.3
2017-03-20T19:20:51.328Z,34.3
2017-03-20T19:25:52.253Z,34.3
2017-03-20T19:30:53.228Z,34.3
2017-03-20T19:35:54.135Z,34.3
2017-03-20T19:40:55.095Z,34.4
2017-03-20T19:45:56.019Z,34.5
2017-03-20T19:50:56.911Z,34.8
2017-03-20T19:55:57.935Z,35
2017-03-20T20:00:58.821Z,35.3
2017-03-20T20:05:59.763Z,35.5
2017-03-20T20:11:00.733Z,35.8
2017-03-20T20:16:01.697Z,36.1
2017-03-20T20:21:02.623Z,36.3
2017-03-20T20:26:03.609Z,36.6
2017-03-20T20:31:04.594Z,36.6
2017-03-20T20:36:05.577Z,36.8
2017-03-20T20:41:06.576Z,36.9
2017-03-20T20:46:07.592Z,36.9
2017-03-20T20:51:08.617Z,36.9
2017-03-20T20:56:09.709Z,36.9
2017-03-20T21:01:10.542Z,36.8
2017-03-20T21:06:11.504Z,36.7
2017-03-20T21:11:12.500Z,36.6
2017-03-20T21:16:13.441Z,36.5
2017-03-20T21:21:14.472Z,36.4
2017-03-20T21:26:15.437Z,36.4
2017-03-20T21:31:16.466Z,36.5
2017-03-20T21:36:17.418Z,36.5
2017-03-20T21:41:18.416Z,36.7
2017-03-20T21:46:19.398Z,36.8
2017-03-20T21:51:20.348Z,36.9
2017-03-20T21:56:21.346Z,37.1
2017-03-20T22:01:22.334Z,37.2
2017-03-20T22:06:23.294Z,37.3
2017-03-20T22:11:24.232Z,37.5
2017-03-20T22:16:25.223Z,37.6
2017-03-20T22:21:26.139Z,37.7
2017-03-20T22:26:27.116Z,37.8
2017-03-20T22:31:28.050Z,37.9
2017-03-20T22:36:28.990Z,38
2017-03-20T22:41:29.914Z,38.1
2017-03-20T22:46:30.838Z,38.2
2017-03-20T22:51:31.812Z,38.2
2017-03-20T22:56:32.772Z,38.4
2017-03-20T23:01:33.724Z,38.5
2017-03-20T23:06:34.748Z,38.5
2017-03-20T23:11:35.675Z,38.5
2017-03-20T23:16:36.681Z,38.6
2017-03-20T23:21:37.666Z,38.7
2017-03-20T23:26:38.651Z,38.8
2017-03-20T23:31:39.615Z,38.8
2017-03-20T23:36:40.589Z,38.9
2017-03-20T23:41:41.540Z,39
2017-03-20T23:46:42.498Z,39
2017-03-20T23:51:43.448Z,39
2017-03-20T23:56:44.456Z,39.1
